createdAt,value
2019-05-09T00:01:35.302Z,2.37
2019-05-09T00:04:04.453Z,2.47
2019-05-09T00:06:34.104Z,2.17
2019-05-09T00:09:03.891Z,2.90
2019-05-09T00:11:33.672Z,2.77
2019-05-09T00:14:04.422Z,2.77
2019-05-09T00:16:33.734Z,1.97
2019-05-09T00:19:03.453Z,2.20
2019-05-09T00:21:38.337Z,2.67
2019-05-09T00:24:07.714Z,1.80
2019-05-09T00:26:36.914Z,2.07
2019-05-09T00:29:10.755Z,2.27
2019-05-09T00:31:50.516Z,1.70
2019-05-09T00:34:27.904Z,2.40
2019-05-09T00:36:57.055Z,2.33
2019-05-09T00:39:26.140Z,2.17
2019-05-09T00:41:55.282Z,1.83
2019-05-09T00:44:27.469Z,2.33
2019-05-09T00:47:05.617Z,2.40
2019-05-09T00:49:35.160Z,2.10
2019-05-09T00:52:04.280Z,2.43
2019-05-09T00:54:33.557Z,1.87
2019-05-09T00:57:03.323Z,2.37
2019-05-09T00:59:33.348Z,2.10
2019-05-09T01:02:03.906Z,1.70
2019-05-09T01:04:33.500Z,1.90
2019-05-09T01:07:03.574Z,2.07
2019-05-09T01:09:33.493Z,1.77
2019-05-09T01:12:04.118Z,1.50
2019-05-09T01:14:34.038Z,1.57
2019-05-09T01:17:04.201Z,1.77
2019-05-09T01:19:33.827Z,2.07
2019-05-09T01:22:03.867Z,1.80
2019-05-09T01:24:33.754Z,2.10
2019-05-09T01:27:03.722Z,1.70
2019-05-09T01:29:33.734Z,1.83
2019-05-09T01:32:06.127Z,1.60
2019-05-09T01:34:35.629Z,1.90
2019-05-09T01:37:08.809Z,2.00
2019-05-09T01:39:37.944Z,1.80
2019-05-09T01:42:07.281Z,1.90
2019-05-09T01:44:36.590Z,1.53
2019-05-09T01:47:05.678Z,2.10
2019-05-09T01:49:34.777Z,1.63
2019-05-09T01:52:03.962Z,2.20
2019-05-09T01:54:35.027Z,1.87
2019-05-09T01:57:04.077Z,2.17
2019-05-09T01:59:34.011Z,1.80
2019-05-09T02:02:08.085Z,1.57
2019-05-09T02:04:34.314Z,1.27
2019-05-09T02:07:04.258Z,1.87
2019-05-09T02:09:34.213Z,1.80
2019-05-09T02:12:04.146Z,1.83
2019-05-09T02:14:49.435Z,1.70
2019-05-09T02:17:36.322Z,1.63
2019-05-09T02:20:05.666Z,1.67
2019-05-09T02:22:35.152Z,2.07
2019-05-09T02:25:05.690Z,1.23
2019-05-09T02:27:34.866Z,1.70
2019-05-09T02:30:05.635Z,1.50
2019-05-09T02:32:35.147Z,1.33
2019-05-09T02:35:05.193Z,1.60
2019-05-09T02:37:34.420Z,1.70
2019-05-09T02:40:03.500Z,1.80
2019-05-09T02:42:32.712Z,1.10
2019-05-09T02:45:01.777Z,1.50
2019-05-09T02:47:30.929Z,1.20
2019-05-09T02:50:00.141Z,1.77
2019-05-09T02:52:29.271Z,1.90
2019-05-09T02:54:58.676Z,1.70
2019-05-09T02:57:29.401Z,1.27
2019-05-09T03:00:08.415Z,1.57
2019-05-09T03:02:59.549Z,1.70
2019-05-09T03:05:29.673Z,1.60
2019-05-09T03:07:59.470Z,1.80
2019-05-09T03:10:29.477Z,0.97
2019-05-09T03:12:59.546Z,1.30
2019-05-09T03:15:29.530Z,1.50
2019-05-09T03:17:59.924Z,1.27
2019-05-09T03:20:49.377Z,1.10
2019-05-09T03:23:19.317Z,1.37
2019-05-09T03:25:48.688Z,1.27
2019-05-09T03:28:28.372Z,1.57
2019-05-09T03:30:59.407Z,1.17
2019-05-09T03:33:32.359Z,1.60
2019-05-09T03:35:59.660Z,1.40
2019-05-09T03:38:28.836Z,1.37
2019-05-09T03:40:58.129Z,1.67
2019-05-09T03:43:27.583Z,1.43
2019-05-09T03:46:02.890Z,1.13
2019-05-09T03:48:37.597Z,1.17
2019-05-09T03:51:08.108Z,1.30
2019-05-09T03:53:37.999Z,1.47
2019-05-09T03:56:09.911Z,1.40
2019-05-09T03:58:39.022Z,1.27
2019-05-09T04:01:10.691Z,1.53
2019-05-09T04:03:38.897Z,1.40
2019-05-09T04:06:08.352Z,1.07
2019-05-09T04:08:37.848Z,1.13
2019-05-09T04:11:08.650Z,1.10
2019-05-09T04:13:43.205Z,1.00
2019-05-09T04:16:12.260Z,1.00
2019-05-09T04:18:41.497Z,0.87
2019-05-09T04:21:10.690Z,1.07
2019-05-09T04:23:39.873Z,1.33
2019-05-09T04:26:27.906Z,1.00
2019-05-09T04:28:57.800Z,1.30
2019-05-09T04:31:28.010Z,1.30
2019-05-09T04:33:57.614Z,1.20
2019-05-09T04:36:38.895Z,0.93
2019-05-09T04:39:18.009Z,1.37
2019-05-09T04:41:42.571Z,1.00
2019-05-09T04:44:21.771Z,1.80
2019-05-09T04:46:54.230Z,1.40
2019-05-09T04:49:22.257Z,1.30
2019-05-09T04:51:51.254Z,1.07
2019-05-09T04:54:20.543Z,1.23
2019-05-09T04:56:49.923Z,1.57
2019-05-09T04:59:18.928Z,1.70
2019-05-09T05:02:18.126Z,1.47
2019-05-09T05:04:47.904Z,1.40
2019-05-09T05:07:18.026Z,2.07
2019-05-09T05:09:48.358Z,1.60
2019-05-09T05:12:18.723Z,1.87
2019-05-09T05:14:48.139Z,1.73
2019-05-09T05:17:18.154Z,2.37
2019-05-09T05:19:47.995Z,1.80
2019-05-09T05:22:22.805Z,1.70
2019-05-09T05:24:58.703Z,2.93
2019-05-09T05:27:27.838Z,3.27
2019-05-09T05:29:58.331Z,4.13
2019-05-09T05:32:42.526Z,4.53
2019-05-09T05:35:33.465Z,6.43
2019-05-09T05:38:02.610Z,6.03
2019-05-09T05:40:33.710Z,4.93
2019-05-09T05:43:02.699Z,5.57
2019-05-09T05:45:34.192Z,5.57
2019-05-09T05:48:08.679Z,4.37
2019-05-09T05:50:38.262Z,5.70
2019-05-09T05:53:07.951Z,4.40
2019-05-09T05:55:37.957Z,4.23
2019-05-09T05:58:08.552Z,3.07
2019-05-09T06:00:38.197Z,3.67
2019-05-09T06:03:08.741Z,2.60
2019-05-09T06:05:38.458Z,3.43
2019-05-09T06:08:08.322Z,2.47
2019-05-09T06:10:38.185Z,3.47
2019-05-09T06:13:07.942Z,3.80
2019-05-09T06:15:38.031Z,3.67
2019-05-09T06:18:08.061Z,3.47
2019-05-09T06:20:38.550Z,4.23
2019-05-09T06:23:08.631Z,3.87
2019-05-09T06:25:38.957Z,3.63
2019-05-09T06:28:08.762Z,5.30
2019-05-09T06:30:41.146Z,4.47
2019-05-09T06:33:09.154Z,4.97
2019-05-09T06:35:38.578Z,5.30
2019-05-09T06:38:07.942Z,4.90
2019-05-09T06:40:38.312Z,4.60
2019-05-09T06:43:21.876Z,5.50
2019-05-09T06:46:08.729Z,5.53
2019-05-09T06:48:38.039Z,5.73
2019-05-09T06:51:07.404Z,4.87
2019-05-09T06:53:38.014Z,4.90
2019-05-09T06:56:07.694Z,4.33
2019-05-09T06:58:38.360Z,5.27
2019-05-09T07:01:18.258Z,4.73
2019-05-09T07:03:49.771Z,5.40
2019-05-09T07:06:40.878Z,4.77
2019-05-09T07:09:14.113Z,3.77
2019-05-09T07:11:43.182Z,4.87
2019-05-09T07:14:33.277Z,5.03
2019-05-09T07:17:02.529Z,4.17
2019-05-09T07:19:31.930Z,3.27
2019-05-09T07:22:23.015Z,4.03
2019-05-09T07:25:10.961Z,3.80
2019-05-09T07:27:40.734Z,3.50
2019-05-09T07:30:17.949Z,3.97
2019-05-09T07:33:09.474Z,3.70
2019-05-09T07:35:38.651Z,3.30
2019-05-09T07:38:08.454Z,3.90
2019-05-09T07:40:38.497Z,4.07
2019-05-09T07:43:08.135Z,4.47
2019-05-09T07:45:38.386Z,5.10
2019-05-09T07:48:07.863Z,4.70
2019-05-09T07:50:38.895Z,4.10
2019-05-09T07:53:08.861Z,4.60
2019-05-09T07:55:38.307Z,4.07
2019-05-09T07:58:08.195Z,3.67
2019-05-09T08:00:38.474Z,3.90
2019-05-09T08:03:12.639Z,4.50
2019-05-09T08:05:38.878Z,3.70
2019-05-09T08:08:11.230Z,3.00
2019-05-09T08:10:40.375Z,3.43
2019-05-09T08:13:12.055Z,3.27
2019-05-09T08:15:40.325Z,3.63
2019-05-09T08:18:09.597Z,4.27
2019-05-09T08:20:40.768Z,2.90
2019-05-09T08:23:09.470Z,3.43
2019-05-09T08:25:38.624Z,3.20
2019-05-09T08:28:09.024Z,3.57
2019-05-09T08:30:40.233Z,3.10
2019-05-09T08:33:10.092Z,3.33
2019-05-09T08:35:39.284Z,3.07
2019-05-09T08:38:08.765Z,3.37
2019-05-09T08:40:38.390Z,2.70
2019-05-09T08:43:07.900Z,3.00
2019-05-09T08:45:38.274Z,2.73
2019-05-09T08:48:09.405Z,3.17
2019-05-09T08:50:51.736Z,3.20
2019-05-09T08:53:20.904Z,2.83
2019-05-09T08:55:50.094Z,3.00
2019-05-09T08:58:19.934Z,2.53
2019-05-09T09:00:49.322Z,3.37
2019-05-09T09:03:18.592Z,3.10
2019-05-09T09:05:48.604Z,3.00
2019-05-09T09:08:18.547Z,2.93
2019-05-09T09:10:48.778Z,2.73
2019-05-09T09:13:18.453Z,2.90
2019-05-09T09:16:04.528Z,3.00
2019-05-09T09:18:18.407Z,2.43
2019-05-09T09:20:48.553Z,2.97
2019-05-09T09:23:18.217Z,2.87
2019-05-09T09:25:48.700Z,2.67
2019-05-09T09:28:18.458Z,2.70
2019-05-09T09:30:48.513Z,2.13
2019-05-09T09:33:17.929Z,3.27
2019-05-09T09:35:48.940Z,2.03
2019-05-09T09:38:17.812Z,2.47
2019-05-09T09:40:47.864Z,2.17
2019-05-09T09:43:17.783Z,2.60
2019-05-09T09:45:48.136Z,2.10
2019-05-09T09:48:18.191Z,2.67
2019-05-09T09:50:51.335Z,2.30
2019-05-09T09:53:18.499Z,2.53
2019-05-09T09:55:48.364Z,2.27
2019-05-09T09:58:19.056Z,2.40
2019-05-09T10:01:03.637Z,2.50
2019-05-09T10:03:33.491Z,2.27
2019-05-09T10:06:02.687Z,2.40
2019-05-09T10:08:31.796Z,2.37
2019-05-09T10:11:00.935Z,2.23
2019-05-09T10:13:30.124Z,2.20
2019-05-09T10:16:29.193Z,2.73
2019-05-09T10:19:18.401Z,2.30
2019-05-09T10:21:51.049Z,2.10
2019-05-09T10:24:20.177Z,2.43
2019-05-09T10:27:09.185Z,2.73
2019-05-09T10:29:39.048Z,2.10
2019-05-09T10:32:18.391Z,2.60
2019-05-09T10:34:48.864Z,2.00
2019-05-09T10:37:18.705Z,2.53
2019-05-09T10:39:49.030Z,2.60
2019-05-09T10:42:31.493Z,2.40
2019-05-09T10:45:23.001Z,2.07
2019-05-09T10:47:52.023Z,2.37
2019-05-09T10:50:21.198Z,2.60
2019-05-09T10:52:50.337Z,2.47
2019-05-09T10:55:19.441Z,2.30
2019-05-09T10:57:52.227Z,2.17
2019-05-09T11:00:19.523Z,2.20
2019-05-09T11:02:48.616Z,2.13
2019-05-09T11:05:18.436Z,2.47
2019-05-09T11:07:49.548Z,1.83
2019-05-09T11:10:25.684Z,2.47
2019-05-09T11:12:49.600Z,2.23
2019-05-09T11:15:18.785Z,2.20
2019-05-09T11:17:47.791Z,2.50
2019-05-09T11:20:19.361Z,1.73
2019-05-09T11:22:48.033Z,2.07
2019-05-09T11:25:17.186Z,2.27
2019-05-09T11:27:48.530Z,2.00
2019-05-09T11:30:17.648Z,1.93
2019-05-09T11:32:48.094Z,2.40
2019-05-09T11:35:17.732Z,1.83
2019-05-09T11:37:48.071Z,1.47
2019-05-09T11:40:17.462Z,2.00
2019-05-09T11:42:48.234Z,2.13
2019-05-09T11:45:17.900Z,2.03
2019-05-09T11:47:47.404Z,1.87
2019-05-09T11:50:22.535Z,1.80
2019-05-09T11:52:49.104Z,1.63
2019-05-09T11:55:29.737Z,1.83
2019-05-09T11:57:49.337Z,1.67
2019-05-09T12:00:18.475Z,1.90
2019-05-09T12:02:49.868Z,1.70
2019-05-09T12:05:19.181Z,1.90
2019-05-09T12:07:48.625Z,1.90
2019-05-09T12:10:18.742Z,2.10
2019-05-09T12:12:48.158Z,1.50
2019-05-09T12:15:17.334Z,1.73
2019-05-09T12:17:56.010Z,1.87
2019-05-09T12:20:18.062Z,1.40
2019-05-09T12:22:48.486Z,1.27
2019-05-09T12:25:18.474Z,1.47
2019-05-09T12:27:48.663Z,1.50
2019-05-09T12:30:18.925Z,1.77
2019-05-09T12:32:48.783Z,1.20
2019-05-09T12:35:19.124Z,1.40
2019-05-09T12:37:48.670Z,1.77
2019-05-09T12:40:20.071Z,1.00
2019-05-09T12:42:50.150Z,1.10
2019-05-09T12:45:19.481Z,1.20
2019-05-09T12:47:48.702Z,1.33
2019-05-09T12:50:18.677Z,1.43
2019-05-09T12:52:48.835Z,1.30
2019-05-09T12:55:18.676Z,0.97
2019-05-09T12:57:48.876Z,1.20
2019-05-09T13:00:18.776Z,1.43
2019-05-09T13:02:48.334Z,1.10
2019-05-09T13:05:18.111Z,1.70
2019-05-09T13:07:48.065Z,1.07
2019-05-09T13:10:19.530Z,1.10
2019-05-09T13:12:48.797Z,0.90
2019-05-09T13:15:20.907Z,1.00
2019-05-09T13:17:50.972Z,0.80
2019-05-09T13:20:20.106Z,1.00
2019-05-09T13:22:49.360Z,0.80
2019-05-09T13:25:19.029Z,0.60
2019-05-09T13:27:52.256Z,0.70
2019-05-09T13:30:19.348Z,0.80
2019-05-09T13:32:49.183Z,0.90
2019-05-09T13:35:19.859Z,0.67
2019-05-09T13:37:49.290Z,0.73
2019-05-09T13:40:19.032Z,0.83
2019-05-09T13:42:49.218Z,0.90
2019-05-09T13:45:18.925Z,0.80
2019-05-09T13:47:49.494Z,1.00
2019-05-09T13:50:20.238Z,0.60
2019-05-09T13:52:49.412Z,0.77
2019-05-09T13:55:18.582Z,0.97
2019-05-09T13:57:48.611Z,0.50
2019-05-09T14:00:18.785Z,0.70
2019-05-09T14:02:48.961Z,0.77
2019-05-09T14:05:19.254Z,0.90
2019-05-09T14:07:49.995Z,0.70
2019-05-09T14:10:19.178Z,0.70
2019-05-09T14:13:04.679Z,0.60
2019-05-09T14:15:19.379Z,0.67
2019-05-09T14:17:53.101Z,0.77
2019-05-09T14:20:19.479Z,0.60
2019-05-09T14:22:49.092Z,0.60
2019-05-09T14:25:19.628Z,1.07
2019-05-09T14:27:52.289Z,0.63
2019-05-09T14:30:19.966Z,0.73
2019-05-09T14:32:49.919Z,0.50
2019-05-09T14:35:19.389Z,0.67
2019-05-09T14:37:48.877Z,0.70
2019-05-09T14:40:19.209Z,0.50
2019-05-09T14:42:49.461Z,0.40
2019-05-09T14:45:18.869Z,0.73
2019-05-09T14:47:48.045Z,0.60
2019-05-09T14:50:18.103Z,0.60
2019-05-09T14:52:49.124Z,0.60
2019-05-09T14:55:18.186Z,0.40
2019-05-09T14:57:48.091Z,0.60
2019-05-09T15:00:18.848Z,0.60
2019-05-09T15:02:48.936Z,0.60
2019-05-09T15:05:18.970Z,0.90
2019-05-09T15:07:48.521Z,0.67
2019-05-09T15:10:18.739Z,1.00
2019-05-09T15:12:48.819Z,0.47
2019-05-09T15:15:18.643Z,0.70
2019-05-09T15:17:49.249Z,0.47
2019-05-09T15:20:18.943Z,0.50
2019-05-09T15:22:48.077Z,0.50
2019-05-09T15:25:19.303Z,0.40
2019-05-09T15:27:48.089Z,0.60
2019-05-09T15:30:18.725Z,0.63
2019-05-09T15:32:51.422Z,0.60
2019-05-09T15:35:18.936Z,0.63
2019-05-09T15:37:48.211Z,0.90
2019-05-09T15:40:17.902Z,0.50
2019-05-09T15:42:47.924Z,0.60
2019-05-09T15:45:18.448Z,0.90
2019-05-09T15:47:48.418Z,0.70
2019-05-09T15:50:22.908Z,0.80
2019-05-09T15:52:49.079Z,0.60
2019-05-09T15:55:18.161Z,0.50
2019-05-09T15:57:48.595Z,0.50
2019-05-09T16:00:19.130Z,0.43
2019-05-09T16:02:48.788Z,0.43
2019-05-09T16:05:18.344Z,0.50
2019-05-09T16:07:48.205Z,0.60
2019-05-09T16:10:18.004Z,0.73
2019-05-09T16:12:48.718Z,0.60
2019-05-09T16:15:18.615Z,0.50
2019-05-09T16:17:48.771Z,0.50
2019-05-09T16:20:36.032Z,0.80
2019-05-09T16:22:48.902Z,0.80
2019-05-09T16:25:18.801Z,1.17
2019-05-09T16:27:48.969Z,0.60
2019-05-09T16:30:18.178Z,0.77
2019-05-09T16:32:48.032Z,0.67
2019-05-09T16:35:18.305Z,1.00
2019-05-09T16:38:00.858Z,1.17
2019-05-09T16:40:18.761Z,0.70
2019-05-09T16:42:48.204Z,0.70
2019-05-09T16:45:18.260Z,0.57
2019-05-09T16:47:48.482Z,0.90
2019-05-09T16:50:18.102Z,0.60
2019-05-09T16:52:48.778Z,0.80
2019-05-09T16:55:22.893Z,0.60
2019-05-09T16:57:52.013Z,0.40
2019-05-09T17:00:32.015Z,0.70
2019-05-09T17:03:01.158Z,0.87
2019-05-09T17:05:30.317Z,1.07
2019-05-09T17:07:59.501Z,0.80
2019-05-09T17:10:29.086Z,0.60
2019-05-09T17:12:58.346Z,0.57
2019-05-09T17:15:29.215Z,0.63
2019-05-09T17:17:58.774Z,0.50
2019-05-09T17:20:34.592Z,0.80
2019-05-09T17:23:13.723Z,0.80
2019-05-09T17:25:38.857Z,0.90
2019-05-09T17:28:08.012Z,0.77
2019-05-09T17:30:38.344Z,0.80
2019-05-09T17:33:07.937Z,0.70
2019-05-09T17:35:38.629Z,0.60
2019-05-09T17:38:08.813Z,1.00
2019-05-09T17:40:39.060Z,0.80
2019-05-09T17:43:08.525Z,0.70
2019-05-09T17:45:41.749Z,0.97
2019-05-09T17:48:08.716Z,0.40
2019-05-09T17:50:38.515Z,0.87
2019-05-09T17:53:08.603Z,0.60
2019-05-09T17:55:38.374Z,0.90
2019-05-09T17:58:08.826Z,0.90
2019-05-09T18:00:38.357Z,1.00
2019-05-09T18:03:07.781Z,0.83
2019-05-09T18:05:38.970Z,0.60
2019-05-09T18:08:08.177Z,0.80
2019-05-09T18:10:38.216Z,1.00
2019-05-09T18:13:07.974Z,1.73
2019-05-09T18:15:37.977Z,1.03
2019-05-09T18:18:07.366Z,0.50
2019-05-09T18:20:37.938Z,0.87
2019-05-09T18:23:08.199Z,0.97
2019-05-09T18:25:38.058Z,1.47
2019-05-09T18:28:07.182Z,1.20
2019-05-09T18:30:38.654Z,0.77
2019-05-09T18:33:19.640Z,1.00
2019-05-09T18:35:48.943Z,0.77
2019-05-09T18:38:28.092Z,1.00
2019-05-09T18:40:57.869Z,1.00
2019-05-09T18:43:27.633Z,0.60
2019-05-09T18:45:57.698Z,0.60
2019-05-09T18:48:28.013Z,0.73
2019-05-09T18:50:57.104Z,1.20
2019-05-09T18:53:27.111Z,1.20
2019-05-09T18:55:56.265Z,1.10
2019-05-09T18:58:25.513Z,1.07
2019-05-09T19:00:55.331Z,0.80
2019-05-09T19:03:24.873Z,1.00
2019-05-09T19:05:54.091Z,1.17
2019-05-09T19:08:23.284Z,1.10
2019-05-09T19:10:52.612Z,2.50
2019-05-09T19:13:21.918Z,1.20
2019-05-09T19:16:15.850Z,1.40
2019-05-09T19:18:58.040Z,1.20
2019-05-09T19:21:37.622Z,1.03
2019-05-09T19:24:06.840Z,1.23
2019-05-09T19:26:39.427Z,1.17
2019-05-09T19:29:09.240Z,1.43
2019-05-09T19:31:38.827Z,1.20
2019-05-09T19:34:08.298Z,1.43
2019-05-09T19:36:37.801Z,1.40
2019-05-09T19:39:08.743Z,1.33
2019-05-09T19:41:38.103Z,1.23
2019-05-09T19:44:07.246Z,1.00
2019-05-09T19:46:36.421Z,1.50
2019-05-09T19:49:05.508Z,1.07
2019-05-09T19:51:34.810Z,1.47
2019-05-09T19:54:04.085Z,1.13
2019-05-09T19:56:33.306Z,1.17
2019-05-09T19:59:02.504Z,1.13
2019-05-09T20:01:31.754Z,1.30
2019-05-09T20:04:00.899Z,1.17
2019-05-09T20:06:30.108Z,1.13
2019-05-09T20:08:59.339Z,1.03
2019-05-09T20:11:47.599Z,1.13
2019-05-09T20:14:41.547Z,1.00
2019-05-09T20:17:10.801Z,0.87
2019-05-09T20:19:39.919Z,1.10
2019-05-09T20:22:09.215Z,1.40
2019-05-09T20:24:38.235Z,1.13
2019-05-09T20:27:07.488Z,1.17
2019-05-09T20:29:36.780Z,0.83
2019-05-09T20:32:06.052Z,1.37
2019-05-09T20:34:35.273Z,1.13
2019-05-09T20:37:04.467Z,1.20
2019-05-09T20:39:34.174Z,1.10
2019-05-09T20:42:03.553Z,1.50
2019-05-09T20:44:32.899Z,1.40
2019-05-09T20:47:02.298Z,0.90
2019-05-09T20:49:31.779Z,1.17
2019-05-09T20:52:01.179Z,1.17
2019-05-09T20:54:31.345Z,1.17
2019-05-09T20:57:00.691Z,1.20
2019-05-09T20:59:30.025Z,1.20
2019-05-09T21:01:59.689Z,0.97
2019-05-09T21:04:29.033Z,0.80
2019-05-09T21:06:58.324Z,1.57
2019-05-09T21:09:28.159Z,1.00
2019-05-09T21:11:57.651Z,1.40
2019-05-09T21:14:27.041Z,1.33
2019-05-09T21:16:56.686Z,1.30
2019-05-09T21:19:26.029Z,1.27
2019-05-09T21:21:56.184Z,1.17
2019-05-09T21:24:25.524Z,1.50
2019-05-09T21:26:54.831Z,1.40
2019-05-09T21:29:24.201Z,1.40
2019-05-09T21:31:53.522Z,1.10
2019-05-09T21:34:22.810Z,1.20
2019-05-09T21:36:51.867Z,1.50
2019-05-09T21:39:23.006Z,0.90
2019-05-09T21:41:52.221Z,0.93
2019-05-09T21:44:21.665Z,1.20
2019-05-09T21:46:50.914Z,1.20
2019-05-09T21:49:20.137Z,1.47
2019-05-09T21:51:49.557Z,1.70
2019-05-09T21:54:18.757Z,1.17
2019-05-09T21:56:47.886Z,1.37
2019-05-09T21:59:17.572Z,1.00
2019-05-09T22:01:46.712Z,1.00
2019-05-09T22:04:15.836Z,1.00
2019-05-09T22:06:44.964Z,1.03
2019-05-09T22:09:14.548Z,1.50
2019-05-09T22:11:43.681Z,1.40
2019-05-09T22:14:12.805Z,1.17
2019-05-09T22:16:42.749Z,0.73
2019-05-09T22:19:11.828Z,1.47
2019-05-09T22:21:40.862Z,1.27
2019-05-09T22:24:10.006Z,1.27
2019-05-09T22:26:39.102Z,1.60
2019-05-09T22:29:08.178Z,1.17
2019-05-09T22:31:37.349Z,1.17
2019-05-09T22:34:06.529Z,1.30
2019-05-09T22:36:35.656Z,1.23
2019-05-09T22:39:05.953Z,1.30
2019-05-09T22:41:35.065Z,1.20
2019-05-09T22:44:04.515Z,1.47
2019-05-09T22:46:33.611Z,1.10
2019-05-09T22:49:02.663Z,1.50
2019-05-09T22:51:31.789Z,1.60
2019-05-09T22:54:12.419Z,1.07
2019-05-09T22:56:32.064Z,1.00
2019-05-09T22:59:01.277Z,1.47
2019-05-09T23:01:30.427Z,1.00
2019-05-09T23:03:59.584Z,1.50
2019-05-09T23:06:28.585Z,1.10
2019-05-09T23:08:57.732Z,0.97
2019-05-09T23:11:26.897Z,1.10
2019-05-09T23:13:56.037Z,1.30
2019-05-09T23:16:26.070Z,1.00
2019-05-09T23:18:55.430Z,1.00
2019-05-09T23:21:27.238Z,1.47
2019-05-09T23:24:02.058Z,0.87
2019-05-09T23:26:31.171Z,1.30
2019-05-09T23:29:00.331Z,1.43
2019-05-09T23:31:37.679Z,1.20
2019-05-09T23:34:06.788Z,1.07
2019-05-09T23:36:35.956Z,1.40
2019-05-09T23:39:12.220Z,1.30
2019-05-09T23:41:41.240Z,0.70
2019-05-09T23:44:10.729Z,1.10
2019-05-09T23:46:39.808Z,1.17
2019-05-09T23:49:09.017Z,1.27
2019-05-09T23:51:45.555Z,1.23
2019-05-09T23:54:45.236Z,0.90
2019-05-09T23:57:21.201Z,1.00
